sensor_id;sensor_type;location;lat;lon;timestamp;P1;durP1;ratioP1;P2;durP2;ratioP2
4504;SDS011;2265;48.794;9.520;2024-01-06T00:01:56;10.10;;;4.50;;
4504;SDS011;2265;48.794;9.520;2024-01-06T00:04:24;9.40;;;4.43;;
4504;SDS011;2265;48.794;9.520;2024-01-06T00:06:53;9.60;;;4.67;;
4504;SDS011;2265;48.794;9.520;2024-01-06T00:09:25;6.90;;;3.77;;
4504;SDS011;2265;48.794;9.520;2024-01-06T00:11:53;10.07;;;4.10;;
4504;SDS011;2265;48.794;9.520;2024-01-06T00:14:20;8.67;;;4.10;;
4504;SDS011;2265;48.794;9.520;2024-01-06T00:16:47;11.30;;;3.57;;
4504;SDS011;2265;48.794;9.520;2024-01-06T00:19:21;7.90;;;3.70;;
4504;SDS011;2265;48.794;9.520;2024-01-06T00:21:48;6.77;;;3.77;;
4504;SDS011;2265;48.794;9.520;2024-01-06T00:24:17;9.27;;;3.90;;
4504;SDS011;2265;48.794;9.520;2024-01-06T00:26:44;9.00;;;3.60;;
4504;SDS011;2265;48.794;9.520;2024-01-06T00:29:11;6.57;;;3.37;;
4504;SDS011;2265;48.794;9.520;2024-01-06T00:31:38;6.23;;;3.30;;
4504;SDS011;2265;48.794;9.520;2024-01-06T00:34:05;6.57;;;3.20;;
4504;SDS011;2265;48.794;9.520;2024-01-06T00:36:32;6.97;;;3.40;;
4504;SDS011;2265;48.794;9.520;2024-01-06T00:38:59;6.77;;;3.40;;
4504;SDS011;2265;48.794;9.520;2024-01-06T00:41:28;12.33;;;4.00;;
4504;SDS011;2265;48.794;9.520;2024-01-06T00:43:55;7.40;;;3.47;;
4504;SDS011;2265;48.794;9.520;2024-01-06T00:46:22;9.60;;;3.77;;
4504;SDS011;2265;48.794;9.520;2024-01-06T00:48:49;6.33;;;3.60;;
4504;SDS011;2265;48.794;9.520;2024-01-06T00:51:16;8.30;;;3.80;;
4504;SDS011;2265;48.794;9.520;2024-01-06T00:53:43;9.90;;;3.30;;
4504;SDS011;2265;48.794;9.520;2024-01-06T00:56:10;7.80;;;3.07;;
4504;SDS011;2265;48.794;9.520;2024-01-06T00:58:39;6.83;;;3.20;;
4504;SDS011;2265;48.794;9.520;2024-01-06T01:01:06;6.10;;;3.00;;
4504;SDS011;2265;48.794;9.520;2024-01-06T01:03:34;11.93;;;2.97;;
4504;SDS011;2265;48.794;9.520;2024-01-06T01:06:01;6.07;;;2.73;;
4504;SDS011;2265;48.794;9.520;2024-01-06T01:08:30;5.93;;;3.00;;
4504;SDS011;2265;48.794;9.520;2024-01-06T01:13:48;6.53;;;2.80;;
4504;SDS011;2265;48.794;9.520;2024-01-06T01:16:15;6.53;;;3.10;;
4504;SDS011;2265;48.794;9.520;2024-01-06T01:18:42;6.57;;;3.40;;
4504;SDS011;2265;48.794;9.520;2024-01-06T01:21:09;15.07;;;3.50;;
4504;SDS011;2265;48.794;9.520;2024-01-06T01:23:36;3.80;;;2.60;;
4504;SDS011;2265;48.794;9.520;2024-01-06T01:26:03;5.47;;;2.73;;
4504;SDS011;2265;48.794;9.520;2024-01-06T01:28:31;9.30;;;2.77;;
4504;SDS011;2265;48.794;9.520;2024-01-06T01:31:00;5.10;;;2.60;;
4504;SDS011;2265;48.794;9.520;2024-01-06T01:33:27;6.30;;;2.70;;
4504;SDS011;2265;48.794;9.520;2024-01-06T01:35:55;7.47;;;3.00;;
4504;SDS011;2265;48.794;9.520;2024-01-06T01:38:22;5.20;;;3.20;;
4504;SDS011;2265;48.794;9.520;2024-01-06T01:40:48;6.73;;;3.10;;
4504;SDS011;2265;48.794;9.520;2024-01-06T01:43:16;7.50;;;2.83;;
4504;SDS011;2265;48.794;9.520;2024-01-06T01:45:43;7.10;;;2.67;;
4504;SDS011;2265;48.794;9.520;2024-01-06T01:48:13;6.80;;;3.13;;
4504;SDS011;2265;48.794;9.520;2024-01-06T01:50:40;6.30;;;3.00;;
4504;SDS011;2265;48.794;9.520;2024-01-06T01:53:11;6.67;;;3.30;;
4504;SDS011;2265;48.794;9.520;2024-01-06T01:55:39;4.33;;;2.97;;
4504;SDS011;2265;48.794;9.520;2024-01-06T01:58:07;6.60;;;3.20;;
4504;SDS011;2265;48.794;9.520;2024-01-06T02:00:35;5.33;;;2.70;;
4504;SDS011;2265;48.794;9.520;2024-01-06T02:03:03;4.73;;;2.40;;
4504;SDS011;2265;48.794;9.520;2024-01-06T02:05:32;4.00;;;2.60;;
4504;SDS011;2265;48.794;9.520;2024-01-06T02:07:59;5.53;;;2.83;;
4504;SDS011;2265;48.794;9.520;2024-01-06T02:10:27;5.43;;;2.57;;
4504;SDS011;2265;48.794;9.520;2024-01-06T02:12:55;4.50;;;2.60;;
4504;SDS011;2265;48.794;9.520;2024-01-06T02:15:53;5.33;;;3.03;;
4504;SDS011;2265;48.794;9.520;2024-01-06T02:18:21;4.33;;;2.60;;
4504;SDS011;2265;48.794;9.520;2024-01-06T02:20:49;5.13;;;2.67;;
4504;SDS011;2265;48.794;9.520;2024-01-06T02:23:20;7.03;;;3.20;;
4504;SDS011;2265;48.794;9.520;2024-01-06T02:25:47;6.37;;;3.00;;
4504;SDS011;2265;48.794;9.520;2024-01-06T02:28:14;3.40;;;2.33;;
4504;SDS011;2265;48.794;9.520;2024-01-06T02:30:41;3.23;;;2.40;;
4504;SDS011;2265;48.794;9.520;2024-01-06T02:33:09;3.70;;;2.63;;
4504;SDS011;2265;48.794;9.520;2024-01-06T02:35:36;4.93;;;2.83;;
4504;SDS011;2265;48.794;9.520;2024-01-06T02:38:05;4.30;;;2.40;;
4504;SDS011;2265;48.794;9.520;2024-01-06T02:40:33;4.40;;;2.63;;
4504;SDS011;2265;48.794;9.520;2024-01-06T02:43:00;4.60;;;2.57;;
4504;SDS011;2265;48.794;9.520;2024-01-06T02:45:27;3.67;;;2.67;;
4504;SDS011;2265;48.794;9.520;2024-01-06T02:47:54;2.90;;;2.13;;
4504;SDS011;2265;48.794;9.520;2024-01-06T02:50:21;6.50;;;2.60;;
4504;SDS011;2265;48.794;9.520;2024-01-06T02:52:48;3.87;;;2.10;;
4504;SDS011;2265;48.794;9.520;2024-01-06T02:55:15;3.27;;;2.07;;
4504;SDS011;2265;48.794;9.520;2024-01-06T02:57:44;3.93;;;2.20;;
4504;SDS011;2265;48.794;9.520;2024-01-06T03:00:14;3.00;;;2.03;;
4504;SDS011;2265;48.794;9.520;2024-01-06T03:02:42;4.57;;;2.30;;
4504;SDS011;2265;48.794;9.520;2024-01-06T03:05:09;4.87;;;2.10;;
4504;SDS011;2265;48.794;9.520;2024-01-06T03:07:36;5.87;;;2.40;;
4504;SDS011;2265;48.794;9.520;2024-01-06T03:10:03;5.00;;;2.13;;
4504;SDS011;2265;48.794;9.520;2024-01-06T03:12:31;5.67;;;2.10;;
4504;SDS011;2265;48.794;9.520;2024-01-06T03:14:59;3.97;;;2.43;;
4504;SDS011;2265;48.794;9.520;2024-01-06T03:17:26;3.83;;;2.10;;
4504;SDS011;2265;48.794;9.520;2024-01-06T03:19:54;6.90;;;2.23;;
4504;SDS011;2265;48.794;9.520;2024-01-06T03:22:24;7.27;;;2.60;;
4504;SDS011;2265;48.794;9.520;2024-01-06T03:24:51;6.60;;;2.20;;
4504;SDS011;2265;48.794;9.520;2024-01-06T03:27:18;5.87;;;2.20;;
4504;SDS011;2265;48.794;9.520;2024-01-06T03:29:45;2.80;;;2.30;;
4504;SDS011;2265;48.794;9.520;2024-01-06T03:32:14;3.80;;;1.93;;
4504;SDS011;2265;48.794;9.520;2024-01-06T03:34:42;6.47;;;2.60;;
4504;SDS011;2265;48.794;9.520;2024-01-06T03:37:09;4.30;;;2.50;;
4504;SDS011;2265;48.794;9.520;2024-01-06T03:39:39;3.23;;;1.93;;
4504;SDS011;2265;48.794;9.520;2024-01-06T03:42:06;4.80;;;2.60;;
4504;SDS011;2265;48.794;9.520;2024-01-06T03:44:33;6.27;;;2.73;;
4504;SDS011;2265;48.794;9.520;2024-01-06T03:47:00;3.37;;;2.43;;
4504;SDS011;2265;48.794;9.520;2024-01-06T03:49:29;4.87;;;2.60;;
4504;SDS011;2265;48.794;9.520;2024-01-06T03:51:56;4.53;;;3.00;;
4504;SDS011;2265;48.794;9.520;2024-01-06T03:54:22;5.20;;;3.17;;
4504;SDS011;2265;48.794;9.520;2024-01-06T03:56:50;5.03;;;2.90;;
4504;SDS011;2265;48.794;9.520;2024-01-06T03:59:17;6.30;;;3.10;;
4504;SDS011;2265;48.794;9.520;2024-01-06T04:01:46;4.63;;;2.90;;
4504;SDS011;2265;48.794;9.520;2024-01-06T04:04:13;10.80;;;3.30;;
4504;SDS011;2265;48.794;9.520;2024-01-06T04:06:41;4.70;;;2.83;;
4504;SDS011;2265;48.794;9.520;2024-01-06T04:09:08;3.30;;;2.10;;
4504;SDS011;2265;48.794;9.520;2024-01-06T04:11:35;3.37;;;2.07;;
4504;SDS011;2265;48.794;9.520;2024-01-06T04:14:02;4.07;;;2.60;;
4504;SDS011;2265;48.794;9.520;2024-01-06T04:16:29;3.53;;;2.30;;
4504;SDS011;2265;48.794;9.520;2024-01-06T04:18:56;8.43;;;2.60;;
4504;SDS011;2265;48.794;9.520;2024-01-06T04:21:23;3.70;;;2.37;;
4504;SDS011;2265;48.794;9.520;2024-01-06T04:23:52;3.37;;;2.30;;
4504;SDS011;2265;48.794;9.520;2024-01-06T04:26:21;4.13;;;1.97;;
4504;SDS011;2265;48.794;9.520;2024-01-06T04:28:48;2.47;;;1.90;;
4504;SDS011;2265;48.794;9.520;2024-01-06T04:31:16;7.27;;;2.27;;
4504;SDS011;2265;48.794;9.520;2024-01-06T04:33:43;3.57;;;2.07;;
4504;SDS011;2265;48.794;9.520;2024-01-06T04:36:11;3.40;;;1.90;;
4504;SDS011;2265;48.794;9.520;2024-01-06T04:38:38;2.40;;;1.80;;
4504;SDS011;2265;48.794;9.520;2024-01-06T04:41:06;2.50;;;1.70;;
4504;SDS011;2265;48.794;9.520;2024-01-06T04:43:33;2.73;;;1.80;;
4504;SDS011;2265;48.794;9.520;2024-01-06T04:46:00;4.87;;;2.20;;
4504;SDS011;2265;48.794;9.520;2024-01-06T04:48:27;3.77;;;1.97;;
4504;SDS011;2265;48.794;9.520;2024-01-06T04:50:54;5.37;;;1.80;;
4504;SDS011;2265;48.794;9.520;2024-01-06T04:53:21;1.93;;;1.80;;
4504;SDS011;2265;48.794;9.520;2024-01-06T04:55:48;2.13;;;1.80;;
4504;SDS011;2265;48.794;9.520;2024-01-06T04:58:17;3.73;;;1.87;;
4504;SDS011;2265;48.794;9.520;2024-01-06T05:00:44;2.37;;;1.87;;
4504;SDS011;2265;48.794;9.520;2024-01-06T05:03:11;3.60;;;2.07;;
4504;SDS011;2265;48.794;9.520;2024-01-06T05:05:38;2.43;;;1.73;;
4504;SDS011;2265;48.794;9.520;2024-01-06T05:08:05;2.57;;;1.77;;
4504;SDS011;2265;48.794;9.520;2024-01-06T05:10:32;2.60;;;1.70;;
4504;SDS011;2265;48.794;9.520;2024-01-06T05:12:58;2.53;;;1.60;;
4504;SDS011;2265;48.794;9.520;2024-01-06T05:15:26;9.70;;;2.10;;
4504;SDS011;2265;48.794;9.520;2024-01-06T05:17:53;7.43;;;1.90;;
4504;SDS011;2265;48.794;9.520;2024-01-06T05:20:22;4.53;;;2.00;;
4504;SDS011;2265;48.794;9.520;2024-01-06T05:22:49;2.57;;;1.70;;
4504;SDS011;2265;48.794;9.520;2024-01-06T05:25:17;2.53;;;1.80;;
4504;SDS011;2265;48.794;9.520;2024-01-06T05:27:45;3.90;;;1.80;;
4504;SDS011;2265;48.794;9.520;2024-01-06T05:30:12;3.40;;;1.80;;
4504;SDS011;2265;48.794;9.520;2024-01-06T05:32:41;2.63;;;1.40;;
4504;SDS011;2265;48.794;9.520;2024-01-06T05:35:08;3.50;;;2.40;;
4504;SDS011;2265;48.794;9.520;2024-01-06T05:37:37;1.73;;;1.60;;
4504;SDS011;2265;48.794;9.520;2024-01-06T05:40:06;2.33;;;1.77;;
4504;SDS011;2265;48.794;9.520;2024-01-06T05:42:33;2.23;;;1.80;;
4504;SDS011;2265;48.794;9.520;2024-01-06T05:45:00;4.73;;;1.70;;
4504;SDS011;2265;48.794;9.520;2024-01-06T05:47:29;2.60;;;1.70;;
4504;SDS011;2265;48.794;9.520;2024-01-06T05:49:58;3.63;;;1.63;;
4504;SDS011;2265;48.794;9.520;2024-01-06T05:52:25;2.53;;;1.70;;
4504;SDS011;2265;48.794;9.520;2024-01-06T05:54:52;4.60;;;1.90;;
4504;SDS011;2265;48.794;9.520;2024-01-06T05:57:19;6.83;;;1.90;;
4504;SDS011;2265;48.794;9.520;2024-01-06T05:59:47;4.03;;;1.90;;
4504;SDS011;2265;48.794;9.520;2024-01-06T06:02:14;4.07;;;1.80;;
4504;SDS011;2265;48.794;9.520;2024-01-06T06:04:41;8.57;;;2.30;;
4504;SDS011;2265;48.794;9.520;2024-01-06T06:07:10;5.53;;;2.10;;
4504;SDS011;2265;48.794;9.520;2024-01-06T06:09:37;2.50;;;1.73;;
4504;SDS011;2265;48.794;9.520;2024-01-06T06:12:05;5.33;;;2.17;;
4504;SDS011;2265;48.794;9.520;2024-01-06T06:14:33;3.13;;;1.90;;
4504;SDS011;2265;48.794;9.520;2024-01-06T06:17:00;4.80;;;2.20;;
4504;SDS011;2265;48.794;9.520;2024-01-06T06:19:27;3.73;;;1.97;;
4504;SDS011;2265;48.794;9.520;2024-01-06T06:21:54;2.40;;;1.80;;
4504;SDS011;2265;48.794;9.520;2024-01-06T06:24:23;2.70;;;2.00;;
4504;SDS011;2265;48.794;9.520;2024-01-06T06:26:50;5.60;;;2.10;;
4504;SDS011;2265;48.794;9.520;2024-01-06T06:29:17;2.37;;;1.80;;
4504;SDS011;2265;48.794;9.520;2024-01-06T06:31:45;6.50;;;2.07;;
4504;SDS011;2265;48.794;9.520;2024-01-06T06:34:13;3.20;;;1.70;;
4504;SDS011;2265;48.794;9.520;2024-01-06T06:36:41;1.80;;;1.60;;
4504;SDS011;2265;48.794;9.520;2024-01-06T06:39:08;3.70;;;1.70;;
4504;SDS011;2265;48.794;9.520;2024-01-06T06:41:37;4.60;;;2.77;;
4504;SDS011;2265;48.794;9.520;2024-01-06T06:44:04;3.10;;;1.93;;
4504;SDS011;2265;48.794;9.520;2024-01-06T06:46:31;3.13;;;2.17;;
4504;SDS011;2265;48.794;9.520;2024-01-06T06:48:58;6.93;;;1.90;;
4504;SDS011;2265;48.794;9.520;2024-01-06T06:51:26;6.37;;;1.90;;
4504;SDS011;2265;48.794;9.520;2024-01-06T06:53:53;6.47;;;2.40;;
4504;SDS011;2265;48.794;9.520;2024-01-06T06:56:21;2.77;;;1.77;;
4504;SDS011;2265;48.794;9.520;2024-01-06T06:58:49;4.33;;;2.20;;
4504;SDS011;2265;48.794;9.520;2024-01-06T07:01:16;4.77;;;2.37;;
4504;SDS011;2265;48.794;9.520;2024-01-06T07:03:43;1.80;;;1.60;;
4504;SDS011;2265;48.794;9.520;2024-01-06T07:06:11;2.83;;;1.90;;
4504;SDS011;2265;48.794;9.520;2024-01-06T07:08:39;6.10;;;2.43;;
4504;SDS011;2265;48.794;9.520;2024-01-06T07:11:07;3.47;;;1.80;;
4504;SDS011;2265;48.794;9.520;2024-01-06T07:13:36;4.33;;;2.00;;
4504;SDS011;2265;48.794;9.520;2024-01-06T07:16:05;2.63;;;1.80;;
4504;SDS011;2265;48.794;9.520;2024-01-06T07:18:33;2.30;;;1.83;;
4504;SDS011;2265;48.794;9.520;2024-01-06T07:21:00;2.10;;;1.83;;
4504;SDS011;2265;48.794;9.520;2024-01-06T07:23:27;3.40;;;2.07;;
4504;SDS011;2265;48.794;9.520;2024-01-06T07:25:55;2.47;;;1.97;;
4504;SDS011;2265;48.794;9.520;2024-01-06T07:28:23;3.20;;;2.03;;
4504;SDS011;2265;48.794;9.520;2024-01-06T07:30:50;3.00;;;1.80;;
4504;SDS011;2265;48.794;9.520;2024-01-06T07:36:07;4.23;;;2.17;;
4504;SDS011;2265;48.794;9.520;2024-01-06T07:38:34;3.07;;;1.93;;
4504;SDS011;2265;48.794;9.520;2024-01-06T07:41:02;3.13;;;2.10;;
4504;SDS011;2265;48.794;9.520;2024-01-06T07:43:29;6.53;;;2.47;;
4504;SDS011;2265;48.794;9.520;2024-01-06T07:45:56;3.47;;;2.20;;
4504;SDS011;2265;48.794;9.520;2024-01-06T07:48:24;5.20;;;2.23;;
4504;SDS011;2265;48.794;9.520;2024-01-06T07:50:52;2.83;;;2.10;;
4504;SDS011;2265;48.794;9.520;2024-01-06T07:53:19;3.53;;;2.03;;
4504;SDS011;2265;48.794;9.520;2024-01-06T07:55:46;3.00;;;1.97;;
4504;SDS011;2265;48.794;9.520;2024-01-06T07:58:14;2.70;;;2.00;;
4504;SDS011;2265;48.794;9.520;2024-01-06T08:00:41;5.93;;;2.30;;
4504;SDS011;2265;48.794;9.520;2024-01-06T08:03:08;2.87;;;1.90;;
4504;SDS011;2265;48.794;9.520;2024-01-06T08:05:36;4.60;;;2.20;;
4504;SDS011;2265;48.794;9.520;2024-01-06T08:08:06;3.10;;;1.97;;
4504;SDS011;2265;48.794;9.520;2024-01-06T08:10:34;2.50;;;1.80;;
4504;SDS011;2265;48.794;9.520;2024-01-06T08:13:01;2.80;;;2.10;;
4504;SDS011;2265;48.794;9.520;2024-01-06T08:15:29;2.30;;;1.80;;
4504;SDS011;2265;48.794;9.520;2024-01-06T08:17:57;3.60;;;2.00;;
4504;SDS011;2265;48.794;9.520;2024-01-06T08:20:24;3.30;;;1.83;;
4504;SDS011;2265;48.794;9.520;2024-01-06T08:22:51;4.40;;;1.90;;
4504;SDS011;2265;48.794;9.520;2024-01-06T08:25:20;3.03;;;1.80;;
4504;SDS011;2265;48.794;9.520;2024-01-06T08:27:47;4.57;;;2.10;;
4504;SDS011;2265;48.794;9.520;2024-01-06T08:30:14;3.50;;;1.90;;
4504;SDS011;2265;48.794;9.520;2024-01-06T08:32:41;4.20;;;2.20;;
4504;SDS011;2265;48.794;9.520;2024-01-06T08:35:09;2.53;;;1.73;;
4504;SDS011;2265;48.794;9.520;2024-01-06T08:37:36;7.07;;;2.40;;
4504;SDS011;2265;48.794;9.520;2024-01-06T08:40:04;4.80;;;2.33;;
4504;SDS011;2265;48.794;9.520;2024-01-06T08:42:33;5.20;;;2.60;;
4504;SDS011;2265;48.794;9.520;2024-01-06T08:45:00;6.30;;;2.60;;
4504;SDS011;2265;48.794;9.520;2024-01-06T08:47:28;4.70;;;2.07;;
4504;SDS011;2265;48.794;9.520;2024-01-06T08:49:55;2.27;;;1.70;;
4504;SDS011;2265;48.794;9.520;2024-01-06T08:52:22;3.80;;;1.60;;
4504;SDS011;2265;48.794;9.520;2024-01-06T08:54:48;5.27;;;2.03;;
4504;SDS011;2265;48.794;9.520;2024-01-06T08:57:15;3.83;;;2.47;;
4504;SDS011;2265;48.794;9.520;2024-01-06T08:59:45;4.47;;;2.40;;
4504;SDS011;2265;48.794;9.520;2024-01-06T09:02:12;3.40;;;2.20;;
4504;SDS011;2265;48.794;9.520;2024-01-06T09:04:39;2.70;;;1.93;;
4504;SDS011;2265;48.794;9.520;2024-01-06T09:07:06;5.60;;;2.47;;
4504;SDS011;2265;48.794;9.520;2024-01-06T09:09:33;6.37;;;2.67;;
4504;SDS011;2265;48.794;9.520;2024-01-06T09:12:00;3.40;;;2.43;;
4504;SDS011;2265;48.794;9.520;2024-01-06T09:14:28;7.20;;;2.93;;
4504;SDS011;2265;48.794;9.520;2024-01-06T09:16:56;4.53;;;2.43;;
4504;SDS011;2265;48.794;9.520;2024-01-06T09:19:23;10.50;;;3.30;;
4504;SDS011;2265;48.794;9.520;2024-01-06T09:21:53;9.40;;;2.80;;
4504;SDS011;2265;48.794;9.520;2024-01-06T09:24:20;4.93;;;3.00;;
4504;SDS011;2265;48.794;9.520;2024-01-06T09:26:47;6.00;;;3.10;;
4504;SDS011;2265;48.794;9.520;2024-01-06T09:29:15;5.20;;;2.70;;
4504;SDS011;2265;48.794;9.520;2024-01-06T09:31:42;5.47;;;2.87;;
4504;SDS011;2265;48.794;9.520;2024-01-06T09:34:11;5.27;;;2.83;;
4504;SDS011;2265;48.794;9.520;2024-01-06T09:36:38;7.40;;;2.63;;
4504;SDS011;2265;48.794;9.520;2024-01-06T09:39:06;6.27;;;3.17;;
4504;SDS011;2265;48.794;9.520;2024-01-06T09:41:33;5.73;;;2.97;;
4504;SDS011;2265;48.794;9.520;2024-01-06T09:44:00;5.60;;;3.10;;
4504;SDS011;2265;48.794;9.520;2024-01-06T09:46:28;10.13;;;3.20;;
4504;SDS011;2265;48.794;9.520;2024-01-06T09:48:55;5.90;;;3.13;;
4504;SDS011;2265;48.794;9.520;2024-01-06T09:51:25;5.97;;;3.30;;
4504;SDS011;2265;48.794;9.520;2024-01-06T09:53:56;4.80;;;2.83;;
4504;SDS011;2265;48.794;9.520;2024-01-06T09:56:32;8.87;;;3.73;;
4504;SDS011;2265;48.794;9.520;2024-01-06T09:59:00;6.80;;;3.87;;
4504;SDS011;2265;48.794;9.520;2024-01-06T10:01:30;11.10;;;5.10;;
4504;SDS011;2265;48.794;9.520;2024-01-06T10:03:57;10.00;;;4.67;;
4504;SDS011;2265;48.794;9.520;2024-01-06T10:06:25;6.90;;;4.13;;
4504;SDS011;2265;48.794;9.520;2024-01-06T10:08:52;9.60;;;4.47;;
4504;SDS011;2265;48.794;9.520;2024-01-06T10:11:20;7.17;;;3.90;;
4504;SDS011;2265;48.794;9.520;2024-01-06T10:13:50;11.37;;;4.40;;
4504;SDS011;2265;48.794;9.520;2024-01-06T10:16:19;8.23;;;4.03;;
4504;SDS011;2265;48.794;9.520;2024-01-06T10:18:47;8.37;;;4.03;;
4504;SDS011;2265;48.794;9.520;2024-01-06T10:21:14;11.63;;;4.07;;
4504;SDS011;2265;48.794;9.520;2024-01-06T10:23:50;6.60;;;3.40;;
4504;SDS011;2265;48.794;9.520;2024-01-06T10:26:17;6.10;;;2.90;;
4504;SDS011;2265;48.794;9.520;2024-01-06T10:28:44;4.17;;;2.90;;
4504;SDS011;2265;48.794;9.520;2024-01-06T10:31:11;8.70;;;3.13;;
4504;SDS011;2265;48.794;9.520;2024-01-06T10:33:39;6.13;;;3.53;;
4504;SDS011;2265;48.794;9.520;2024-01-06T10:36:06;6.00;;;3.47;;
4504;SDS011;2265;48.794;9.520;2024-01-06T10:38:34;9.07;;;3.80;;
4504;SDS011;2265;48.794;9.520;2024-01-06T10:41:04;5.87;;;3.60;;
4504;SDS011;2265;48.794;9.520;2024-01-06T10:43:34;5.67;;;3.40;;
4504;SDS011;2265;48.794;9.520;2024-01-06T10:46:06;5.70;;;3.30;;
4504;SDS011;2265;48.794;9.520;2024-01-06T10:48:36;6.53;;;3.57;;
4504;SDS011;2265;48.794;9.520;2024-01-06T10:51:07;7.07;;;3.43;;
4504;SDS011;2265;48.794;9.520;2024-01-06T10:53:35;7.83;;;3.50;;
4504;SDS011;2265;48.794;9.520;2024-01-06T10:56:06;6.37;;;3.47;;
4504;SDS011;2265;48.794;9.520;2024-01-06T10:58:35;5.90;;;3.90;;
4504;SDS011;2265;48.794;9.520;2024-01-06T11:01:09;6.37;;;3.40;;
4504;SDS011;2265;48.794;9.520;2024-01-06T11:03:36;6.40;;;3.03;;
4504;SDS011;2265;48.794;9.520;2024-01-06T11:06:04;6.30;;;3.17;;
4504;SDS011;2265;48.794;9.520;2024-01-06T11:08:36;6.20;;;3.10;;
4504;SDS011;2265;48.794;9.520;2024-01-06T11:11:16;6.30;;;3.60;;
4504;SDS011;2265;48.794;9.520;2024-01-06T11:13:44;5.40;;;3.00;;
4504;SDS011;2265;48.794;9.520;2024-01-06T11:16:12;5.37;;;3.37;;
4504;SDS011;2265;48.794;9.520;2024-01-06T11:19:02;6.73;;;3.30;;
4504;SDS011;2265;48.794;9.520;2024-01-06T11:21:33;6.53;;;3.30;;
4504;SDS011;2265;48.794;9.520;2024-01-06T11:26:58;7.27;;;3.57;;
4504;SDS011;2265;48.794;9.520;2024-01-06T11:29:27;7.27;;;3.70;;
4504;SDS011;2265;48.794;9.520;2024-01-06T11:34:43;6.30;;;3.50;;
4504;SDS011;2265;48.794;9.520;2024-01-06T11:37:16;7.10;;;3.80;;
4504;SDS011;2265;48.794;9.520;2024-01-06T11:39:44;5.97;;;3.67;;
4504;SDS011;2265;48.794;9.520;2024-01-06T11:42:13;8.10;;;3.60;;
4504;SDS011;2265;48.794;9.520;2024-01-06T11:44:42;7.17;;;3.63;;
4504;SDS011;2265;48.794;9.520;2024-01-06T11:47:11;7.83;;;4.10;;
4504;SDS011;2265;48.794;9.520;2024-01-06T11:49:40;7.50;;;4.00;;
4504;SDS011;2265;48.794;9.520;2024-01-06T11:52:12;8.30;;;4.17;;
4504;SDS011;2265;48.794;9.520;2024-01-06T11:54:41;4.93;;;3.03;;
4504;SDS011;2265;48.794;9.520;2024-01-06T11:57:08;4.57;;;3.00;;
4504;SDS011;2265;48.794;9.520;2024-01-06T11:59:36;7.90;;;3.90;;
4504;SDS011;2265;48.794;9.520;2024-01-06T12:02:04;5.77;;;3.37;;
4504;SDS011;2265;48.794;9.520;2024-01-06T12:04:31;5.70;;;2.97;;
4504;SDS011;2265;48.794;9.520;2024-01-06T12:07:05;5.10;;;2.80;;
4504;SDS011;2265;48.794;9.520;2024-01-06T12:09:32;4.90;;;2.90;;
4504;SDS011;2265;48.794;9.520;2024-01-06T12:12:01;7.37;;;3.77;;
4504;SDS011;2265;48.794;9.520;2024-01-06T12:14:29;7.60;;;3.33;;
4504;SDS011;2265;48.794;9.520;2024-01-06T12:16:59;5.00;;;2.90;;
4504;SDS011;2265;48.794;9.520;2024-01-06T12:19:28;7.10;;;3.33;;
4504;SDS011;2265;48.794;9.520;2024-01-06T12:21:55;4.60;;;2.67;;
4504;SDS011;2265;48.794;9.520;2024-01-06T12:24:23;6.00;;;3.47;;
4504;SDS011;2265;48.794;9.520;2024-01-06T12:26:50;7.70;;;3.50;;
4504;SDS011;2265;48.794;9.520;2024-01-06T12:29:17;6.73;;;3.20;;
4504;SDS011;2265;48.794;9.520;2024-01-06T12:31:44;7.20;;;3.57;;
4504;SDS011;2265;48.794;9.520;2024-01-06T12:34:13;8.90;;;3.50;;
4504;SDS011;2265;48.794;9.520;2024-01-06T12:36:41;7.53;;;3.50;;
4504;SDS011;2265;48.794;9.520;2024-01-06T12:39:12;7.00;;;3.63;;
4504;SDS011;2265;48.794;9.520;2024-01-06T12:41:39;6.87;;;3.70;;
4504;SDS011;2265;48.794;9.520;2024-01-06T12:44:07;6.13;;;3.90;;
4504;SDS011;2265;48.794;9.520;2024-01-06T12:46:35;6.37;;;3.60;;
4504;SDS011;2265;48.794;9.520;2024-01-06T12:49:02;7.83;;;3.70;;
4504;SDS011;2265;48.794;9.520;2024-01-06T12:51:30;8.00;;;3.87;;
4504;SDS011;2265;48.794;9.520;2024-01-06T12:53:58;7.23;;;3.60;;
4504;SDS011;2265;48.794;9.520;2024-01-06T12:56:25;6.73;;;3.30;;
4504;SDS011;2265;48.794;9.520;2024-01-06T12:58:52;6.73;;;3.40;;
4504;SDS011;2265;48.794;9.520;2024-01-06T13:01:19;5.43;;;3.23;;
4504;SDS011;2265;48.794;9.520;2024-01-06T13:03:46;5.97;;;3.40;;
4504;SDS011;2265;48.794;9.520;2024-01-06T13:06:13;5.80;;;3.30;;
4504;SDS011;2265;48.794;9.520;2024-01-06T13:08:42;7.37;;;3.37;;
4504;SDS011;2265;48.794;9.520;2024-01-06T13:11:09;6.53;;;3.40;;
4504;SDS011;2265;48.794;9.520;2024-01-06T13:13:37;7.70;;;3.73;;
4504;SDS011;2265;48.794;9.520;2024-01-06T13:16:04;6.97;;;3.60;;
4504;SDS011;2265;48.794;9.520;2024-01-06T13:18:31;7.67;;;3.83;;
4504;SDS011;2265;48.794;9.520;2024-01-06T13:20:59;11.67;;;4.47;;
4504;SDS011;2265;48.794;9.520;2024-01-06T13:23:26;5.87;;;3.73;;
4504;SDS011;2265;48.794;9.520;2024-01-06T13:25:55;7.67;;;3.93;;
4504;SDS011;2265;48.794;9.520;2024-01-06T13:28:23;8.67;;;4.10;;
4504;SDS011;2265;48.794;9.520;2024-01-06T13:30:50;6.70;;;3.70;;
4504;SDS011;2265;48.794;9.520;2024-01-06T13:33:19;6.70;;;3.57;;
4504;SDS011;2265;48.794;9.520;2024-01-06T13:35:47;8.47;;;4.37;;
4504;SDS011;2265;48.794;9.520;2024-01-06T13:38:14;10.40;;;4.37;;
4504;SDS011;2265;48.794;9.520;2024-01-06T13:40:47;10.23;;;4.00;;
4504;SDS011;2265;48.794;9.520;2024-01-06T13:43:15;8.07;;;3.67;;
4504;SDS011;2265;48.794;9.520;2024-01-06T13:45:44;9.47;;;4.80;;
4504;SDS011;2265;48.794;9.520;2024-01-06T13:48:12;23.13;;;9.87;;
4504;SDS011;2265;48.794;9.520;2024-01-06T13:50:39;14.27;;;6.47;;
4504;SDS011;2265;48.794;9.520;2024-01-06T13:53:06;16.17;;;8.33;;
4504;SDS011;2265;48.794;9.520;2024-01-06T13:55:33;16.90;;;7.33;;
4504;SDS011;2265;48.794;9.520;2024-01-06T13:58:00;11.73;;;5.93;;
4504;SDS011;2265;48.794;9.520;2024-01-06T14:00:29;9.37;;;4.70;;
4504;SDS011;2265;48.794;9.520;2024-01-06T14:02:56;9.03;;;5.10;;
4504;SDS011;2265;48.794;9.520;2024-01-06T14:05:23;8.97;;;4.73;;
4504;SDS011;2265;48.794;9.520;2024-01-06T14:07:51;8.37;;;4.70;;
4504;SDS011;2265;48.794;9.520;2024-01-06T14:10:18;11.10;;;4.97;;
4504;SDS011;2265;48.794;9.520;2024-01-06T14:12:45;8.93;;;4.67;;
4504;SDS011;2265;48.794;9.520;2024-01-06T14:15:13;11.10;;;5.77;;
4504;SDS011;2265;48.794;9.520;2024-01-06T14:17:41;12.50;;;5.40;;
4504;SDS011;2265;48.794;9.520;2024-01-06T14:20:14;11.70;;;4.57;;
4504;SDS011;2265;48.794;9.520;2024-01-06T14:22:42;14.03;;;5.53;;
4504;SDS011;2265;48.794;9.520;2024-01-06T14:25:09;10.30;;;4.63;;
4504;SDS011;2265;48.794;9.520;2024-01-06T14:27:36;9.87;;;4.37;;
4504;SDS011;2265;48.794;9.520;2024-01-06T14:30:04;15.50;;;5.03;;
4504;SDS011;2265;48.794;9.520;2024-01-06T14:32:34;20.60;;;8.63;;
4504;SDS011;2265;48.794;9.520;2024-01-06T14:35:04;23.73;;;9.43;;
4504;SDS011;2265;48.794;9.520;2024-01-06T14:37:32;22.83;;;10.70;;
4504;SDS011;2265;48.794;9.520;2024-01-06T14:40:00;17.20;;;7.40;;
4504;SDS011;2265;48.794;9.520;2024-01-06T14:42:31;11.50;;;4.90;;
4504;SDS011;2265;48.794;9.520;2024-01-06T14:44:58;12.90;;;6.23;;
4504;SDS011;2265;48.794;9.520;2024-01-06T14:47:26;13.50;;;5.87;;
4504;SDS011;2265;48.794;9.520;2024-01-06T14:49:53;11.97;;;5.20;;
4504;SDS011;2265;48.794;9.520;2024-01-06T14:52:22;11.10;;;5.30;;
4504;SDS011;2265;48.794;9.520;2024-01-06T14:54:49;9.30;;;4.67;;
4504;SDS011;2265;48.794;9.520;2024-01-06T14:57:16;12.60;;;5.00;;
4504;SDS011;2265;48.794;9.520;2024-01-06T14:59:43;10.63;;;5.00;;
4504;SDS011;2265;48.794;9.520;2024-01-06T15:02:10;9.90;;;4.60;;
4504;SDS011;2265;48.794;9.520;2024-01-06T15:04:38;12.07;;;4.60;;
4504;SDS011;2265;48.794;9.520;2024-01-06T15:07:05;9.70;;;4.47;;
4504;SDS011;2265;48.794;9.520;2024-01-06T15:09:37;8.93;;;4.40;;
4504;SDS011;2265;48.794;9.520;2024-01-06T15:12:05;12.27;;;5.10;;
4504;SDS011;2265;48.794;9.520;2024-01-06T15:14:32;11.00;;;4.97;;
4504;SDS011;2265;48.794;9.520;2024-01-06T15:16:59;9.30;;;4.93;;
4504;SDS011;2265;48.794;9.520;2024-01-06T15:19:27;8.10;;;4.40;;
4504;SDS011;2265;48.794;9.520;2024-01-06T15:21:56;9.67;;;4.67;;
4504;SDS011;2265;48.794;9.520;2024-01-06T15:24:23;32.67;;;12.10;;
4504;SDS011;2265;48.794;9.520;2024-01-06T15:26:52;46.87;;;17.57;;
4504;SDS011;2265;48.794;9.520;2024-01-06T15:29:19;20.20;;;7.90;;